Terminal Aerodrome Forecast
Issued by NWS Shreveport, LA

Home | Current Version | Previous Version | Text Only | Print | Product List | Glossary On
Versions: 1 2 3 4 5 6 7 8 9 10 11 12 13 14 15 16 17 18 19 20
000
FTUS44 KSHV 012320
TAFSHV
TAF
KSHV 012320Z 0200/0224 22010KT P6SM FEW045 BKN280
     FM021100 21006KT P6SM SCT015 BKN150
     FM021500 23014G21KT P6SM BKN250=

USA.gov is the U.S. government's official web portal to all federal, state and local government web resources and services.